Tuthill, South Dakota
Current Conditions -  °F | °C
As of 4:52 PM on Saturday 25 Oct 2014 (Local Time) from KVTN Reporting Station
Clear Clear  
Wind Chill: 68°   Ceiling: Unl
Heat Index: 68°   Visibility: 10mi
Dew Point: 32°   Wind: 12mph
Humidity: 26%   Direction: 110°ESE
Pressure: 30.03"   Gusts: NA
Location:  43.16°N, 101.5°W
Report Text: KVTN 252252Z AUTO 11010KT 10SM CLR 20/00 A3003 RMK AO2 SLP168 T02000000
Loading
Personal Weather Stations






























Interactive Weather Map
Tropical Storm Tracking
New forecast layout! Learn more

10-Day Weather Forecast

Advertisements
Track Severe Weather on mobile